createdAt,value
2017-08-20T00:01:08.501Z,5.22
2017-08-20T00:03:37.508Z,5.37
2017-08-20T00:06:06.386Z,5.55
2017-08-20T00:08:35.595Z,7.72
2017-08-20T00:11:04.565Z,4.65
2017-08-20T00:13:33.490Z,5.15
2017-08-20T00:16:02.359Z,7.90
2017-08-20T00:18:31.447Z,5.07
2017-08-20T00:21:00.365Z,7.47
2017-08-20T00:23:29.252Z,5.62
2017-08-20T00:25:58.171Z,6.62
2017-08-20T00:28:27.050Z,7.65
2017-08-20T00:30:55.993Z,5.87
2017-08-20T00:33:24.982Z,6.35
2017-08-20T00:35:53.875Z,7.18
2017-08-20T00:38:22.848Z,7.10
2017-08-20T00:40:51.783Z,7.03
2017-08-20T00:43:21.950Z,6.87
2017-08-20T00:45:50.885Z,6.25
2017-08-20T00:48:19.884Z,6.07
2017-08-20T00:50:48.811Z,5.75
2017-08-20T00:53:17.761Z,6.50
2017-08-20T00:55:46.756Z,8.25
2017-08-20T00:58:15.663Z,8.75
2017-08-20T01:00:45.423Z,6.78
2017-08-20T01:03:14.394Z,8.23
2017-08-20T01:05:43.287Z,7.00
2017-08-20T01:08:12.486Z,7.05
2017-08-20T01:10:41.417Z,7.32
2017-08-20T01:13:10.331Z,7.57
2017-08-20T01:15:39.244Z,6.68
2017-08-20T01:18:08.148Z,7.10
2017-08-20T01:20:37.105Z,7.35
2017-08-20T01:23:06.002Z,9.70
2017-08-20T01:25:35.170Z,8.48
2017-08-20T01:28:04.906Z,7.55
2017-08-20T01:30:34.260Z,7.90
2017-08-20T01:33:03.482Z,7.78
2017-08-20T01:35:32.707Z,9.15
2017-08-20T01:38:01.750Z,8.15
2017-08-20T01:40:30.749Z,10.27
2017-08-20T01:42:59.647Z,11.48
2017-08-20T01:45:28.544Z,9.13
2017-08-20T01:47:57.613Z,10.02
2017-08-20T01:50:26.771Z,8.98
2017-08-20T01:52:57.246Z,14.43
2017-08-20T01:55:26.172Z,9.30
2017-08-20T01:57:55.059Z,10.85
2017-08-20T02:00:28.727Z,9.70
2017-08-20T02:02:57.672Z,11.70
2017-08-20T02:05:26.546Z,10.07
2017-08-20T02:07:55.724Z,14.13
2017-08-20T02:10:24.623Z,14.40
2017-08-20T02:12:53.630Z,15.65
2017-08-20T02:15:22.545Z,12.50
2017-08-20T02:17:51.883Z,12.23
2017-08-20T02:20:27.687Z,13.73
2017-08-20T02:22:56.596Z,14.77
2017-08-20T02:25:25.747Z,13.13
2017-08-20T02:27:54.634Z,16.90
2017-08-20T02:30:23.543Z,12.70
2017-08-20T02:32:52.439Z,12.82
2017-08-20T02:35:21.375Z,12.98
2017-08-20T02:37:50.318Z,11.82
2017-08-20T02:40:19.208Z,13.15
2017-08-20T02:42:48.083Z,16.20
2017-08-20T02:45:16.994Z,13.70
2017-08-20T02:47:45.931Z,13.88
2017-08-20T02:50:14.854Z,15.32
2017-08-20T02:52:43.778Z,17.27
2017-08-20T02:55:12.667Z,19.80
2017-08-20T02:57:42.830Z,16.98
2017-08-20T03:00:11.733Z,14.18
2017-08-20T03:02:40.631Z,17.25
2017-08-20T03:05:09.835Z,17.23
2017-08-20T03:07:38.892Z,18.40
2017-08-20T03:10:08.032Z,13.88
2017-08-20T03:12:36.996Z,16.87
2017-08-20T03:15:06.144Z,16.23
2017-08-20T03:17:35.042Z,16.02
2017-08-20T03:20:04.187Z,16.58
2017-08-20T03:22:33.059Z,16.27
2017-08-20T03:25:01.976Z,15.20
2017-08-20T03:27:30.926Z,14.80
2017-08-20T03:29:59.881Z,17.08
2017-08-20T03:32:28.835Z,20.35
2017-08-20T03:34:57.727Z,19.20
2017-08-20T03:37:26.640Z,16.95
2017-08-20T03:39:55.674Z,19.00
2017-08-20T03:42:24.995Z,16.10
2017-08-20T03:44:53.913Z,15.65
2017-08-20T03:47:22.999Z,18.00
2017-08-20T03:49:52.078Z,18.02
2017-08-20T03:52:21.480Z,15.82
2017-08-20T03:54:50.715Z,22.02
2017-08-20T03:57:19.879Z,15.60
2017-08-20T03:59:48.763Z,19.77
2017-08-20T04:02:17.672Z,16.58
2017-08-20T04:04:46.575Z,17.48
2017-08-20T04:07:15.515Z,21.15
2017-08-20T04:09:44.386Z,20.17
2017-08-20T04:12:13.294Z,18.30
2017-08-20T04:14:42.227Z,18.60
2017-08-20T04:17:11.352Z,19.75
2017-08-20T04:19:40.625Z,22.08
2017-08-20T04:22:09.532Z,19.08
2017-08-20T04:24:38.431Z,21.42
2017-08-20T04:27:07.587Z,22.48
2017-08-20T04:29:37.611Z,19.05
2017-08-20T04:32:06.510Z,17.30
2017-08-20T04:34:35.415Z,23.75
2017-08-20T04:37:04.297Z,20.85
2017-08-20T04:39:33.218Z,19.25
2017-08-20T04:42:02.139Z,16.87
2017-08-20T04:44:31.060Z,20.75
2017-08-20T04:46:59.955Z,20.42
2017-08-20T04:49:28.895Z,21.37
2017-08-20T04:51:57.793Z,18.65
2017-08-20T04:54:26.807Z,18.85
2017-08-20T04:56:55.704Z,19.08
2017-08-20T04:59:24.590Z,20.37
2017-08-20T05:01:53.564Z,18.10
2017-08-20T05:04:22.483Z,18.02
2017-08-20T05:06:51.360Z,16.67
2017-08-20T05:09:20.303Z,16.95
2017-08-20T05:11:49.203Z,21.52
2017-08-20T05:14:18.104Z,15.88
2017-08-20T05:16:47.039Z,21.35
2017-08-20T05:19:15.956Z,18.25
2017-08-20T05:21:44.833Z,17.73
2017-08-20T05:24:13.752Z,15.85
2017-08-20T05:26:42.628Z,17.83
2017-08-20T05:29:11.635Z,14.27
2017-08-20T05:31:40.615Z,16.48
2017-08-20T05:34:09.478Z,14.77
2017-08-20T05:36:38.418Z,15.02
2017-08-20T05:39:07.327Z,15.13
2017-08-20T05:41:36.243Z,14.45
2017-08-20T05:44:05.140Z,15.13
2017-08-20T05:46:34.943Z,14.00
2017-08-20T05:49:03.880Z,15.15
2017-08-20T05:51:32.826Z,13.07
2017-08-20T05:54:01.762Z,13.82
2017-08-20T05:56:30.746Z,14.68
2017-08-20T05:58:59.661Z,12.93
2017-08-20T06:01:28.646Z,11.75
2017-08-20T06:03:57.576Z,11.15
2017-08-20T06:06:26.490Z,12.00
2017-08-20T06:08:55.460Z,14.43
2017-08-20T06:11:24.399Z,14.13
2017-08-20T06:14:07.656Z,9.90
2017-08-20T06:16:36.639Z,11.90
2017-08-20T06:19:05.552Z,11.45
2017-08-20T06:21:34.492Z,9.93
2017-08-20T06:24:03.447Z,12.40
2017-08-20T06:26:32.401Z,12.40
2017-08-20T06:29:01.365Z,10.38
2017-08-20T06:31:30.306Z,10.52
2017-08-20T06:33:59.247Z,9.63
2017-08-20T06:36:28.262Z,9.68
2017-08-20T06:38:57.219Z,10.73
2017-08-20T06:41:26.143Z,13.13
2017-08-20T06:43:55.066Z,9.95
2017-08-20T06:46:24.010Z,10.98
2017-08-20T06:48:52.999Z,9.07
2017-08-20T06:51:21.947Z,9.90
2017-08-20T06:53:50.896Z,8.30
2017-08-20T06:56:19.867Z,7.82
2017-08-20T06:58:48.818Z,9.48
2017-08-20T07:01:17.755Z,7.18
2017-08-20T07:03:46.694Z,8.68
2017-08-20T07:06:15.626Z,7.62
2017-08-20T07:08:44.539Z,6.50
2017-08-20T07:11:14.195Z,7.70
2017-08-20T07:13:43.265Z,7.70
2017-08-20T07:16:12.163Z,6.90
2017-08-20T07:18:41.088Z,8.85
2017-08-20T07:21:10.028Z,6.93
2017-08-20T07:23:39.174Z,6.45
2017-08-20T07:26:08.130Z,7.10
2017-08-20T07:28:37.468Z,8.02
2017-08-20T07:31:06.481Z,6.93
2017-08-20T07:33:35.990Z,6.87
2017-08-20T07:36:04.983Z,6.75
2017-08-20T07:38:34.022Z,6.62
2017-08-20T07:41:02.961Z,10.13
2017-08-20T07:43:31.952Z,20.85
2017-08-20T07:46:00.861Z,7.40
2017-08-20T07:48:29.780Z,11.55
2017-08-20T07:50:58.847Z,7.65
2017-08-20T07:53:27.833Z,8.30
2017-08-20T07:55:56.866Z,10.45
2017-08-20T07:58:25.842Z,10.20
2017-08-20T08:00:54.851Z,12.00
2017-08-20T08:03:24.214Z,9.57
2017-08-20T08:05:54.772Z,7.25
2017-08-20T08:08:23.859Z,9.57
2017-08-20T08:10:52.886Z,9.00
2017-08-20T08:13:21.927Z,7.87
2017-08-20T08:15:50.903Z,6.97
2017-08-20T08:18:19.895Z,7.20
2017-08-20T08:20:48.926Z,5.45
2017-08-20T08:23:17.919Z,5.40
2017-08-20T08:25:46.922Z,5.03
2017-08-20T08:28:15.883Z,7.78
2017-08-20T08:30:44.874Z,5.72
2017-08-20T08:33:13.920Z,5.68
2017-08-20T08:35:42.976Z,5.47
2017-08-20T08:38:12.357Z,6.82
2017-08-20T08:40:41.316Z,6.25
2017-08-20T08:43:10.335Z,10.05
2017-08-20T08:45:39.350Z,8.60
2017-08-20T08:48:08.306Z,5.07
2017-08-20T08:50:37.265Z,6.17
2017-08-20T08:53:06.222Z,7.50
2017-08-20T08:55:35.488Z,4.43
2017-08-20T08:58:04.435Z,4.37
2017-08-20T09:00:33.454Z,5.30
2017-08-20T09:03:02.474Z,4.60
2017-08-20T09:05:31.607Z,4.20
2017-08-20T09:08:00.550Z,6.00
2017-08-20T09:10:29.522Z,6.03
2017-08-20T09:12:58.509Z,5.30
2017-08-20T09:15:27.432Z,6.83
2017-08-20T09:17:56.396Z,3.63
2017-08-20T09:20:25.371Z,4.33
2017-08-20T09:22:54.683Z,6.40
2017-08-20T09:25:23.742Z,5.87
2017-08-20T09:27:52.808Z,3.30
2017-08-20T09:30:21.827Z,5.37
2017-08-20T09:32:50.875Z,3.73
2017-08-20T09:35:19.768Z,5.47
2017-08-20T09:37:48.786Z,5.73
2017-08-20T09:40:18.116Z,4.33
2017-08-20T09:42:47.164Z,4.13
2017-08-20T09:45:16.203Z,3.40
2017-08-20T09:47:45.135Z,5.00
2017-08-20T09:50:14.384Z,4.90
2017-08-20T09:52:43.372Z,4.30
2017-08-20T09:55:12.493Z,8.18
2017-08-20T09:57:41.481Z,4.22
2017-08-20T10:00:10.407Z,5.30
2017-08-20T10:02:39.476Z,5.28
2017-08-20T10:05:08.519Z,5.00
2017-08-20T10:07:37.547Z,2.95
2017-08-20T10:10:06.546Z,8.15
2017-08-20T10:12:35.580Z,7.50
2017-08-20T10:15:05.616Z,5.18
2017-08-20T10:17:34.727Z,5.70
2017-08-20T10:20:03.779Z,3.78
2017-08-20T10:22:32.815Z,5.07
2017-08-20T10:25:01.923Z,5.68
2017-08-20T10:27:30.921Z,3.95
2017-08-20T10:30:00.463Z,4.80
2017-08-20T10:32:29.431Z,6.93
2017-08-20T10:34:58.462Z,3.78
2017-08-20T10:37:27.479Z,3.65
2017-08-20T10:39:56.786Z,3.70
2017-08-20T10:42:25.799Z,2.43
2017-08-20T10:44:54.757Z,3.70
2017-08-20T10:47:23.815Z,4.13
2017-08-20T10:49:52.780Z,5.62
2017-08-20T10:52:21.836Z,4.65
2017-08-20T10:54:51.095Z,4.65
2017-08-20T10:57:20.219Z,4.53
2017-08-20T10:59:49.180Z,3.97
2017-08-20T11:02:18.194Z,3.40
2017-08-20T11:04:47.303Z,5.72
2017-08-20T11:08:35.655Z,3.53
2017-08-20T11:11:05.051Z,3.80
2017-08-20T11:13:34.139Z,3.28
2017-08-20T11:16:03.734Z,5.53
2017-08-20T11:18:36.595Z,7.28
2017-08-20T11:21:05.663Z,4.90
2017-08-20T11:23:34.702Z,4.53
2017-08-20T11:26:03.739Z,4.28
2017-08-20T11:28:33.182Z,5.80
2017-08-20T11:31:02.177Z,4.43
2017-08-20T11:33:31.187Z,4.85
2017-08-20T11:36:00.158Z,6.93
2017-08-20T11:38:29.090Z,9.60
2017-08-20T11:40:58.882Z,6.03
2017-08-20T11:43:27.944Z,5.15
2017-08-20T11:45:56.923Z,4.12
2017-08-20T11:48:26.520Z,4.73
2017-08-20T11:50:55.483Z,4.23
2017-08-20T11:53:24.481Z,4.07
2017-08-20T11:55:53.536Z,4.90
2017-08-20T11:58:22.496Z,5.47
2017-08-20T12:00:51.466Z,5.10
2017-08-20T12:03:20.524Z,4.80
2017-08-20T12:05:49.522Z,4.27
2017-08-20T12:08:18.519Z,4.80
2017-08-20T12:10:47.826Z,4.07
2017-08-20T12:13:16.967Z,3.53
2017-08-20T12:15:46.714Z,6.30
2017-08-20T12:18:16.013Z,3.27
2017-08-20T12:20:45.002Z,4.80
2017-08-20T12:23:14.007Z,4.07
2017-08-20T12:25:43.303Z,4.05
2017-08-20T12:28:14.049Z,3.10
2017-08-20T12:30:43.026Z,4.10
2017-08-20T12:33:12.893Z,4.37
2017-08-20T12:35:41.883Z,3.28
2017-08-20T12:38:10.932Z,5.65
2017-08-20T12:40:39.918Z,3.85
2017-08-20T12:43:08.866Z,5.12
2017-08-20T12:45:37.853Z,8.02
2017-08-20T12:48:06.991Z,3.70
2017-08-20T12:50:36.019Z,3.90
2017-08-20T12:53:05.051Z,3.92
2017-08-20T12:55:35.887Z,4.40
2017-08-20T12:58:05.500Z,3.65
2017-08-20T13:00:34.475Z,3.50
2017-08-20T13:03:03.468Z,4.82
2017-08-20T13:05:33.396Z,5.22
2017-08-20T13:08:02.431Z,6.15
2017-08-20T13:10:34.613Z,3.62
2017-08-20T13:13:03.826Z,3.25
2017-08-20T13:15:32.920Z,4.90
2017-08-20T13:18:02.038Z,5.62
2017-08-20T13:20:31.292Z,6.32
2017-08-20T13:23:00.340Z,5.62
2017-08-20T13:25:29.400Z,4.30
2017-08-20T13:27:58.520Z,5.53
2017-08-20T13:30:27.672Z,5.62
2017-08-20T13:32:57.716Z,6.25
2017-08-20T13:35:27.073Z,4.50
2017-08-20T13:37:56.910Z,3.78
2017-08-20T13:40:27.228Z,4.12
2017-08-20T13:42:56.868Z,6.12
2017-08-20T13:45:26.295Z,4.12
2017-08-20T13:47:55.356Z,7.05
2017-08-20T13:50:24.401Z,5.10
2017-08-20T13:52:53.434Z,5.57
2017-08-20T13:55:23.337Z,5.90
2017-08-20T14:00:48.026Z,5.85
2017-08-20T14:03:18.273Z,3.85
